createdAt,value
2019-02-20T00:00:47.434Z,13.57
2019-02-20T00:03:16.543Z,13.50
2019-02-20T00:05:45.309Z,15.07
2019-02-20T00:08:13.799Z,16.10
2019-02-20T00:10:42.490Z,14.17
2019-02-20T00:13:11.073Z,15.07
2019-02-20T00:15:39.632Z,14.03
2019-02-20T00:18:08.373Z,14.63
2019-02-20T00:20:37.181Z,13.90
2019-02-20T00:23:05.799Z,14.27
2019-02-20T00:25:34.379Z,13.97
2019-02-20T00:28:02.935Z,14.80
2019-02-20T00:30:31.600Z,14.90
2019-02-20T00:33:00.493Z,14.80
2019-02-20T00:35:28.998Z,14.87
2019-02-20T00:37:57.583Z,14.10
2019-02-20T00:40:26.179Z,13.77
2019-02-20T00:42:54.726Z,14.63
2019-02-20T00:45:36.721Z,15.73
2019-02-20T00:48:22.070Z,14.37
2019-02-20T00:51:04.554Z,14.43
2019-02-20T00:53:39.177Z,14.20
2019-02-20T00:56:07.785Z,13.83
2019-02-20T00:58:36.342Z,13.70
2019-02-20T01:01:04.986Z,12.80
2019-02-20T01:03:33.578Z,13.93
2019-02-20T01:06:02.288Z,12.83
2019-02-20T01:08:30.901Z,12.37
2019-02-20T01:10:59.489Z,12.53
2019-02-20T01:13:28.138Z,12.33
2019-02-20T01:15:56.757Z,13.93
2019-02-20T01:18:25.364Z,12.87
2019-02-20T01:21:06.040Z,12.20
2019-02-20T01:23:34.692Z,12.83
2019-02-20T01:26:11.110Z,12.17
2019-02-20T01:28:39.610Z,11.77
2019-02-20T01:31:08.168Z,13.03
2019-02-20T01:33:36.816Z,15.03
2019-02-20T01:36:05.465Z,17.27
2019-02-20T01:38:34.058Z,18.00
2019-02-20T01:41:02.705Z,17.87
2019-02-20T01:43:31.399Z,15.70
2019-02-20T01:46:00.050Z,15.67
2019-02-20T01:48:28.599Z,15.43
2019-02-20T01:50:57.202Z,16.27
2019-02-20T01:53:25.847Z,15.23
2019-02-20T01:55:54.473Z,15.73
2019-02-20T01:58:23.312Z,15.37
2019-02-20T02:00:51.849Z,15.70
2019-02-20T02:03:20.506Z,17.00
2019-02-20T02:05:49.086Z,16.73
2019-02-20T02:08:17.846Z,15.53
2019-02-20T02:10:46.504Z,15.03
2019-02-20T02:13:15.098Z,15.67
2019-02-20T02:15:43.843Z,15.70
2019-02-20T02:18:12.422Z,15.03
2019-02-20T02:20:41.157Z,14.50
2019-02-20T02:23:09.781Z,13.83
2019-02-20T02:25:38.450Z,14.30
2019-02-20T02:28:06.983Z,15.07
2019-02-20T02:30:35.696Z,13.93
2019-02-20T02:33:04.311Z,14.50
2019-02-20T02:35:32.950Z,13.67
2019-02-20T02:38:01.689Z,14.27
2019-02-20T02:40:30.585Z,13.40
2019-02-20T02:42:59.206Z,14.73
2019-02-20T02:45:29.416Z,14.30
2019-02-20T02:47:57.975Z,13.80
2019-02-20T02:50:26.567Z,14.63
2019-02-20T02:52:55.263Z,14.47
2019-02-20T02:55:23.877Z,14.90
2019-02-20T02:57:52.688Z,14.23
2019-02-20T03:00:21.228Z,13.87
2019-02-20T03:02:49.735Z,13.57
2019-02-20T03:05:18.274Z,14.27
2019-02-20T03:07:46.888Z,13.53
2019-02-20T03:10:15.401Z,14.63
2019-02-20T03:12:43.985Z,13.70
2019-02-20T03:15:12.953Z,13.03
2019-02-20T03:17:41.581Z,13.07
2019-02-20T03:20:11.088Z,14.93
2019-02-20T03:22:39.745Z,13.83
2019-02-20T03:25:08.380Z,13.70
2019-02-20T03:27:37.004Z,12.93
2019-02-20T03:30:07.564Z,13.77
2019-02-20T03:32:36.182Z,12.40
2019-02-20T03:35:06.960Z,13.97
2019-02-20T03:37:35.587Z,13.80
2019-02-20T03:40:06.061Z,13.67
2019-02-20T03:42:34.820Z,13.63
2019-02-20T03:45:03.507Z,14.10
2019-02-20T03:47:32.089Z,13.90
2019-02-20T03:50:00.656Z,13.37
2019-02-20T03:52:29.237Z,13.90
2019-02-20T03:54:57.877Z,13.87
2019-02-20T03:57:26.408Z,13.80
2019-02-20T03:59:54.991Z,13.57
2019-02-20T04:02:23.562Z,13.53
2019-02-20T04:04:52.106Z,13.33
2019-02-20T04:07:20.675Z,13.33
2019-02-20T04:09:49.259Z,13.27
2019-02-20T04:12:18.123Z,12.60
2019-02-20T04:14:46.784Z,14.20
2019-02-20T04:17:15.524Z,14.37
2019-02-20T04:19:44.089Z,13.37
2019-02-20T04:22:12.674Z,11.93
2019-02-20T04:24:41.186Z,13.87
2019-02-20T04:27:09.729Z,12.77
2019-02-20T04:29:38.309Z,13.07
2019-02-20T04:32:07.194Z,13.03
2019-02-20T04:34:35.770Z,12.87
2019-02-20T04:37:04.537Z,13.10
2019-02-20T04:39:33.071Z,13.87
2019-02-20T04:42:01.682Z,14.63
2019-02-20T04:44:31.337Z,12.87
2019-02-20T04:46:59.877Z,13.17
2019-02-20T04:49:28.472Z,12.47
2019-02-20T04:51:56.952Z,13.97
2019-02-20T04:54:25.519Z,12.67
2019-02-20T04:56:54.120Z,13.07
2019-02-20T04:59:22.891Z,13.00
2019-02-20T05:01:51.514Z,13.53
2019-02-20T05:04:20.118Z,13.70
2019-02-20T05:06:48.704Z,12.30
2019-02-20T05:09:17.493Z,12.40
2019-02-20T05:11:46.004Z,11.07
2019-02-20T05:14:14.522Z,10.87
2019-02-20T05:16:43.107Z,11.60
2019-02-20T05:19:11.689Z,13.43
2019-02-20T05:21:40.341Z,13.40
2019-02-20T05:24:08.901Z,12.47
2019-02-20T05:26:37.486Z,13.47
2019-02-20T05:29:06.091Z,13.70
2019-02-20T05:31:34.777Z,13.57
2019-02-20T05:34:03.564Z,12.87
2019-02-20T05:36:32.253Z,12.03
2019-02-20T05:39:02.376Z,13.97
2019-02-20T05:41:31.075Z,13.03
2019-02-20T05:43:59.640Z,13.33
2019-02-20T05:46:28.148Z,13.07
2019-02-20T05:48:56.640Z,12.73
2019-02-20T05:51:25.242Z,13.43
2019-02-20T05:53:53.791Z,12.97
2019-02-20T05:56:22.362Z,13.53
2019-02-20T05:58:51.014Z,12.90
2019-02-20T06:01:20.353Z,13.77
2019-02-20T06:03:49.085Z,12.40
2019-02-20T06:06:17.662Z,13.27
2019-02-20T06:08:46.242Z,13.00
2019-02-20T06:11:15.549Z,13.70
2019-02-20T06:13:44.359Z,13.57
2019-02-20T06:16:12.944Z,13.30
2019-02-20T06:18:41.545Z,13.97
2019-02-20T06:21:10.109Z,14.50
2019-02-20T06:23:38.621Z,14.40
2019-02-20T06:26:08.899Z,15.10
2019-02-20T06:28:37.603Z,13.73
2019-02-20T06:31:06.289Z,14.10
2019-02-20T06:33:35.082Z,14.50
2019-02-20T06:36:03.692Z,14.33
2019-02-20T06:38:32.368Z,16.00
2019-02-20T06:41:00.925Z,14.43
2019-02-20T06:43:29.700Z,14.53
2019-02-20T06:45:58.283Z,16.17
2019-02-20T06:48:27.072Z,15.30
2019-02-20T06:50:55.689Z,13.83
2019-02-20T06:53:24.183Z,13.63
2019-02-20T06:55:52.858Z,14.43
2019-02-20T06:58:21.489Z,15.93
2019-02-20T07:00:50.072Z,15.73
2019-02-20T07:03:18.809Z,15.50
2019-02-20T07:05:48.081Z,14.30
2019-02-20T07:08:45.708Z,13.00
2019-02-20T07:11:44.406Z,15.57
2019-02-20T07:14:24.839Z,17.63
2019-02-20T07:17:17.372Z,15.67
2019-02-20T07:19:49.141Z,15.30
2019-02-20T07:22:30.061Z,14.70
2019-02-20T07:25:13.756Z,16.30
2019-02-20T07:27:49.225Z,16.97
2019-02-20T07:33:26.254Z,17.87
2019-02-20T07:35:54.945Z,16.60
2019-02-20T07:38:25.356Z,14.67
2019-02-20T07:40:54.018Z,16.13
2019-02-20T07:43:22.613Z,14.37
2019-02-20T07:45:51.283Z,14.77
2019-02-20T07:48:19.924Z,16.43
2019-02-20T07:50:48.805Z,15.87
2019-02-20T07:53:17.361Z,14.73
2019-02-20T07:55:45.986Z,15.07
2019-02-20T07:58:14.699Z,15.90
2019-02-20T08:00:43.305Z,15.67
2019-02-20T08:03:12.133Z,14.50
2019-02-20T08:05:40.840Z,15.67
2019-02-20T08:08:09.424Z,14.93
2019-02-20T08:10:38.405Z,14.97
2019-02-20T08:13:07.049Z,14.17
2019-02-20T08:15:35.817Z,15.70
2019-02-20T08:18:06.149Z,15.60
2019-02-20T08:20:34.706Z,17.03
2019-02-20T08:23:03.323Z,17.97
2019-02-20T08:25:33.509Z,17.10
2019-02-20T08:28:02.082Z,19.33
2019-02-20T08:30:30.674Z,16.33
2019-02-20T08:32:59.386Z,17.30
2019-02-20T08:35:28.060Z,16.93
2019-02-20T08:37:56.879Z,16.93
2019-02-20T08:40:25.750Z,17.27
2019-02-20T08:42:54.425Z,18.10
2019-02-20T08:45:23.037Z,17.50
2019-02-20T08:47:52.106Z,16.13
2019-02-20T08:50:20.811Z,15.77
2019-02-20T08:52:49.607Z,14.57
2019-02-20T08:55:19.834Z,15.67
2019-02-20T08:57:48.483Z,15.20
2019-02-20T09:00:17.458Z,14.93
2019-02-20T09:02:47.951Z,16.50
2019-02-20T09:05:16.567Z,15.60
2019-02-20T09:07:45.226Z,16.70
2019-02-20T09:10:14.422Z,15.93
2019-02-20T09:12:43.104Z,17.30
2019-02-20T09:15:13.527Z,16.17
2019-02-20T09:17:42.073Z,17.73
2019-02-20T09:20:11.944Z,16.30
2019-02-20T09:22:41.603Z,15.20
2019-02-20T09:25:19.550Z,15.73
2019-02-20T09:27:43.006Z,15.70
2019-02-20T09:30:14.004Z,16.70
2019-02-20T09:32:42.609Z,15.90
2019-02-20T09:35:11.781Z,16.03
2019-02-20T09:37:41.749Z,16.50
2019-02-20T09:40:13.503Z,16.67
2019-02-20T09:42:43.365Z,19.13
2019-02-20T09:45:11.961Z,19.93
2019-02-20T09:47:40.696Z,18.70
2019-02-20T09:50:10.187Z,19.53
2019-02-20T09:52:38.889Z,17.10
2019-02-20T09:55:12.416Z,17.10
2019-02-20T09:57:41.022Z,15.60
2019-02-20T10:00:28.945Z,16.10
2019-02-20T10:02:57.499Z,14.70
2019-02-20T10:05:26.338Z,14.70
2019-02-20T10:07:55.102Z,14.93
2019-02-20T10:10:23.838Z,15.70
2019-02-20T10:12:52.472Z,14.50
2019-02-20T10:15:21.307Z,14.23
2019-02-20T10:17:50.018Z,14.03
2019-02-20T10:20:18.562Z,14.43
2019-02-20T10:22:47.511Z,13.47
2019-02-20T10:25:16.086Z,13.30
2019-02-20T10:27:44.836Z,13.23
2019-02-20T10:30:20.808Z,12.33
2019-02-20T10:32:49.619Z,11.97
2019-02-20T10:35:18.163Z,13.10
2019-02-20T10:37:46.837Z,12.93
2019-02-20T10:40:15.400Z,14.97
2019-02-20T10:42:44.068Z,13.80
2019-02-20T10:45:15.668Z,13.67
2019-02-20T10:47:44.512Z,13.67
2019-02-20T10:50:14.203Z,13.37
2019-02-20T10:52:42.955Z,14.07
2019-02-20T10:55:11.989Z,13.87
2019-02-20T10:57:40.758Z,12.70
2019-02-20T11:00:23.362Z,13.77
2019-02-20T11:02:47.303Z,11.97
2019-02-20T11:05:16.530Z,12.87
2019-02-20T11:07:45.114Z,13.73
2019-02-20T11:10:13.857Z,10.23
2019-02-20T11:12:42.413Z,9.43
2019-02-20T11:15:13.090Z,8.67
2019-02-20T11:17:41.459Z,8.10
2019-02-20T11:20:13.605Z,6.40
2019-02-20T11:22:43.169Z,6.30
2019-02-20T11:25:13.090Z,6.87
2019-02-20T11:27:41.930Z,6.70
2019-02-20T11:30:13.895Z,6.67
2019-02-20T11:32:42.526Z,7.03
2019-02-20T11:35:11.192Z,6.87
2019-02-20T11:37:39.937Z,5.40
2019-02-20T11:40:11.214Z,5.47
2019-02-20T11:42:40.310Z,4.73
2019-02-20T11:45:14.810Z,5.40
2019-02-20T11:47:43.402Z,4.87
2019-02-20T11:50:12.313Z,4.87
2019-02-20T11:52:41.203Z,4.87
2019-02-20T11:55:29.175Z,5.20
2019-02-20T11:58:00.663Z,5.07
2019-02-20T12:00:28.282Z,4.87
2019-02-20T12:02:56.986Z,5.70
2019-02-20T12:05:25.794Z,5.70
2019-02-20T12:07:54.397Z,5.60
2019-02-20T12:10:23.416Z,6.57
2019-02-20T12:12:51.997Z,5.50
2019-02-20T12:15:20.801Z,5.70
2019-02-20T12:17:51.188Z,5.57
2019-02-20T12:20:39.167Z,5.70
2019-02-20T12:23:07.733Z,5.97
2019-02-20T12:25:36.362Z,5.70
2019-02-20T12:28:06.382Z,6.07
2019-02-20T12:30:35.204Z,6.47
2019-02-20T12:33:04.222Z,6.00
2019-02-20T12:35:32.804Z,6.77
2019-02-20T12:38:02.474Z,6.93
2019-02-20T12:40:31.685Z,6.73
2019-02-20T12:43:00.301Z,6.90
2019-02-20T12:45:29.728Z,6.50
2019-02-20T12:47:58.392Z,6.03
2019-02-20T12:50:26.974Z,5.87
2019-02-20T12:52:55.713Z,5.77
2019-02-20T12:55:24.348Z,5.40
2019-02-20T12:57:52.958Z,4.80
2019-02-20T13:00:27.915Z,4.60
2019-02-20T13:02:56.755Z,5.20
2019-02-20T13:05:25.981Z,5.10
2019-02-20T13:07:54.821Z,4.70
2019-02-20T13:10:23.561Z,4.97
2019-02-20T13:12:52.304Z,4.80
2019-02-20T13:15:21.109Z,5.07
2019-02-20T13:17:49.694Z,4.10
2019-02-20T13:20:18.388Z,4.67
2019-02-20T13:22:47.000Z,4.53
2019-02-20T13:25:15.754Z,4.80
2019-02-20T13:27:44.287Z,4.53
2019-02-20T13:30:15.300Z,4.97
2019-02-20T13:32:43.969Z,5.00
2019-02-20T13:35:12.785Z,4.80
2019-02-20T13:37:50.452Z,5.83
2019-02-20T13:40:19.198Z,4.33
2019-02-20T13:42:48.500Z,4.90
2019-02-20T13:45:17.125Z,4.80
2019-02-20T13:47:46.113Z,4.20
2019-02-20T13:50:15.050Z,5.17
2019-02-20T13:52:51.987Z,5.03
2019-02-20T13:55:14.387Z,5.07
2019-02-20T13:57:43.047Z,5.03
2019-02-20T14:00:13.502Z,5.17
2019-02-20T14:02:42.602Z,4.63
2019-02-20T14:05:11.466Z,5.43
2019-02-20T14:07:40.845Z,5.53
2019-02-20T14:10:12.027Z,5.10
2019-02-20T14:12:42.542Z,5.70
2019-02-20T14:15:14.020Z,5.33
2019-02-20T14:17:42.680Z,5.53
2019-02-20T14:20:30.716Z,5.47
2019-02-20T14:22:59.276Z,5.23
2019-02-20T14:25:27.930Z,5.50
2019-02-20T14:27:56.521Z,5.87
2019-02-20T14:30:25.334Z,5.93
2019-02-20T14:32:53.995Z,5.90
2019-02-20T14:35:23.069Z,5.47
2019-02-20T14:37:51.736Z,6.27
2019-02-20T14:40:20.321Z,5.77
2019-02-20T14:42:49.018Z,6.00
2019-02-20T14:45:17.701Z,6.10
2019-02-20T14:47:48.080Z,6.07
2019-02-20T14:50:16.520Z,6.37
2019-02-20T14:52:45.156Z,5.80
2019-02-20T14:55:13.722Z,6.83
2019-02-20T14:57:42.391Z,5.90
2019-02-20T15:00:13.746Z,6.87
2019-02-20T15:02:42.383Z,6.93
2019-02-20T15:05:12.056Z,5.93
2019-02-20T15:07:40.994Z,6.50
2019-02-20T15:10:10.537Z,6.20
2019-02-20T15:12:39.278Z,7.10
2019-02-20T15:15:11.035Z,6.47
2019-02-20T15:17:42.069Z,7.07
2019-02-20T15:20:11.322Z,6.67
2019-02-20T15:22:40.425Z,7.00
2019-02-20T15:25:10.031Z,6.37
2019-02-20T15:27:38.973Z,7.37
2019-02-20T15:30:14.041Z,6.90
2019-02-20T15:32:42.657Z,7.20
2019-02-20T15:35:12.983Z,7.13
2019-02-20T15:37:41.737Z,8.07
2019-02-20T15:40:10.797Z,7.23
2019-02-20T15:42:39.594Z,7.43
2019-02-20T15:45:11.006Z,6.77
2019-02-20T15:47:39.799Z,7.83
2019-02-20T15:50:15.357Z,8.23
2019-02-20T15:52:43.992Z,7.87
2019-02-20T15:55:13.496Z,7.67
2019-02-20T15:57:42.317Z,7.80
2019-02-20T16:00:18.016Z,8.00
2019-02-20T16:02:47.418Z,7.53
2019-02-20T16:05:16.350Z,6.87
2019-02-20T16:07:45.026Z,7.33
2019-02-20T16:10:13.782Z,8.30
2019-02-20T16:12:43.131Z,7.50
2019-02-20T16:15:14.573Z,6.47
2019-02-20T16:17:44.828Z,7.97
2019-02-20T16:20:13.902Z,7.33
2019-02-20T16:22:42.593Z,7.13
2019-02-20T16:25:35.377Z,7.90
2019-02-20T16:28:03.975Z,8.80
2019-02-20T16:30:32.848Z,7.60
2019-02-20T16:33:07.775Z,7.80
2019-02-20T16:35:36.366Z,7.77
2019-02-20T16:38:07.713Z,7.10
2019-02-20T16:40:36.406Z,7.30
2019-02-20T16:43:05.354Z,7.40
2019-02-20T16:45:34.373Z,6.50
2019-02-20T16:48:04.687Z,7.63
2019-02-20T16:50:34.410Z,7.97
2019-02-20T16:53:03.212Z,10.87
2019-02-20T16:55:32.006Z,7.90
2019-02-20T16:58:00.556Z,9.13
2019-02-20T17:00:29.970Z,8.80
2019-02-20T17:02:58.676Z,8.07
2019-02-20T17:05:27.335Z,8.57
2019-02-20T17:07:55.900Z,6.87
2019-02-20T17:10:24.635Z,6.63
2019-02-20T17:12:53.272Z,6.27
2019-02-20T17:15:22.034Z,6.93
2019-02-20T17:17:53.021Z,7.63
2019-02-20T17:20:22.585Z,9.53
2019-02-20T17:22:51.782Z,19.97
2019-02-20T17:25:21.186Z,26.50
2019-02-20T17:27:49.825Z,28.10
2019-02-20T17:30:20.970Z,23.03
2019-02-20T17:32:50.398Z,20.13
2019-02-20T17:35:19.033Z,23.60
2019-02-20T17:37:47.797Z,23.07
2019-02-20T17:40:17.988Z,19.57
2019-02-20T17:42:46.573Z,14.27
2019-02-20T17:45:34.559Z,12.40
2019-02-20T17:48:03.223Z,12.07
2019-02-20T17:50:31.894Z,11.13
2019-02-20T17:53:00.537Z,11.23
2019-02-20T17:55:29.215Z,11.17
2019-02-20T17:57:57.978Z,10.83
2019-02-20T18:00:30.891Z,12.47
2019-02-20T18:02:59.603Z,10.97
2019-02-20T18:05:28.561Z,11.87
2019-02-20T18:07:57.226Z,11.97
2019-02-20T18:10:25.850Z,11.93
2019-02-20T18:12:54.658Z,12.37
2019-02-20T18:15:23.266Z,13.07
2019-02-20T18:17:51.920Z,18.17
2019-02-20T18:20:20.649Z,19.20
2019-02-20T18:22:49.410Z,15.50
2019-02-20T18:25:17.973Z,13.63
2019-02-20T18:27:46.715Z,14.73
2019-02-20T18:30:16.153Z,12.73
2019-02-20T18:32:44.920Z,14.03
2019-02-20T18:35:21.095Z,14.17
2019-02-20T18:37:49.693Z,14.07
2019-02-20T18:40:18.664Z,14.67
2019-02-20T18:42:47.244Z,14.20
2019-02-20T18:45:16.478Z,14.47
2019-02-20T18:47:47.026Z,14.90
2019-02-20T18:50:16.546Z,15.93
2019-02-20T18:52:45.307Z,15.30
2019-02-20T18:55:14.847Z,14.63
2019-02-20T18:57:43.843Z,13.77
2019-02-20T19:00:20.539Z,14.70
2019-02-20T19:02:49.408Z,16.43
2019-02-20T19:05:19.135Z,17.40
2019-02-20T19:07:48.187Z,17.37
2019-02-20T19:10:28.580Z,17.47
2019-02-20T19:13:05.782Z,16.50
2019-02-20T19:15:43.254Z,16.27
2019-02-20T19:18:26.771Z,16.73
2019-02-20T19:21:07.629Z,17.37
2019-02-20T19:23:57.386Z,16.37
2019-02-20T19:26:47.191Z,16.93
2019-02-20T19:29:18.866Z,16.50
2019-02-20T19:31:50.537Z,18.90
2019-02-20T19:34:25.039Z,20.53
2019-02-20T19:37:09.152Z,22.77
2019-02-20T19:39:49.884Z,20.13
2019-02-20T19:42:33.698Z,17.80
2019-02-20T19:45:07.896Z,17.80
2019-02-20T19:47:40.671Z,13.67
2019-02-20T19:50:30.438Z,15.07
2019-02-20T19:53:11.142Z,14.07
2019-02-20T19:56:09.880Z,13.60
2019-02-20T19:59:06.050Z,12.10
2019-02-20T20:02:10.947Z,12.43
2019-02-20T20:05:18.931Z,12.33
2019-02-20T20:08:17.722Z,13.93
2019-02-20T20:10:51.946Z,15.83
2019-02-20T20:13:31.990Z,16.47
2019-02-20T20:16:12.607Z,20.27
2019-02-20T20:19:02.330Z,18.63
2019-02-20T20:21:39.933Z,17.70
2019-02-20T20:24:19.779Z,15.53
2019-02-20T20:27:23.491Z,16.70
2019-02-20T20:30:10.690Z,15.60
2019-02-20T20:32:58.858Z,15.63
2019-02-20T20:35:33.505Z,16.40
2019-02-20T20:38:29.709Z,16.17
2019-02-20T20:41:34.726Z,15.57
2019-02-20T20:44:28.146Z,15.80
2019-02-20T20:47:03.522Z,15.07
2019-02-20T20:49:41.267Z,14.83
2019-02-20T20:52:18.749Z,14.57
2019-02-20T20:55:19.059Z,15.17
2019-02-20T20:58:08.712Z,14.53
2019-02-20T21:00:57.253Z,15.00
2019-02-20T21:03:31.590Z,14.47
2019-02-20T21:06:33.664Z,14.70
2019-02-20T21:09:05.304Z,13.13
2019-02-20T21:11:42.667Z,13.50
2019-02-20T21:14:31.095Z,12.50
2019-02-20T21:17:02.850Z,13.37
2019-02-20T21:19:53.862Z,12.83
2019-02-20T21:22:37.429Z,12.97
2019-02-20T21:25:42.487Z,12.70
2019-02-20T21:28:36.515Z,12.13
2019-02-20T21:31:11.241Z,17.80
2019-02-20T21:33:45.807Z,19.97
2019-02-20T21:36:21.440Z,23.63
2019-02-20T21:38:56.093Z,20.90
2019-02-20T21:41:43.360Z,25.53
2019-02-20T21:44:43.868Z,35.03
2019-02-20T21:47:24.568Z,26.87
2019-02-20T21:50:15.840Z,25.43
2019-02-20T21:53:12.844Z,20.37
2019-02-20T21:56:08.518Z,19.03
2019-02-20T21:58:55.218Z,18.27
2019-02-20T22:01:47.878Z,16.17
2019-02-20T22:04:34.482Z,15.17
2019-02-20T22:07:17.669Z,14.27
2019-02-20T22:09:57.705Z,16.90
2019-02-20T22:12:36.627Z,15.47
2019-02-20T22:15:36.875Z,14.87
2019-02-20T22:18:17.441Z,18.23
2019-02-20T22:20:57.841Z,14.80
2019-02-20T22:23:44.999Z,14.63
2019-02-20T22:26:16.694Z,15.37
2019-02-20T22:28:57.954Z,13.70
2019-02-20T22:31:49.002Z,15.30
2019-02-20T22:34:23.738Z,14.70
2019-02-20T22:36:55.384Z,14.90
2019-02-20T22:39:27.064Z,14.80
2019-02-20T22:42:24.470Z,15.03
2019-02-20T22:45:15.118Z,15.10
2019-02-20T22:48:03.191Z,15.30
2019-02-20T22:50:37.897Z,15.37
2019-02-20T22:53:19.509Z,14.17
2019-02-20T22:56:07.803Z,13.93
2019-02-20T22:58:42.415Z,14.97
2019-02-20T23:01:21.097Z,14.00
2019-02-20T23:03:58.512Z,14.87
2019-02-20T23:06:52.784Z,14.13
2019-02-20T23:09:48.626Z,14.17
2019-02-20T23:12:22.942Z,14.00
2019-02-20T23:14:54.118Z,13.30
2019-02-20T23:17:22.751Z,13.43
2019-02-20T23:19:51.414Z,13.50
2019-02-20T23:22:20.246Z,14.33
2019-02-20T23:24:48.840Z,15.03
2019-02-20T23:27:17.458Z,15.40
2019-02-20T23:29:46.030Z,15.97
2019-02-20T23:32:14.636Z,15.97
2019-02-20T23:34:43.250Z,16.37
2019-02-20T23:37:12.860Z,16.27
2019-02-20T23:39:41.443Z,16.33
2019-02-20T23:42:10.135Z,16.87
2019-02-20T23:44:38.802Z,16.20
2019-02-20T23:47:07.349Z,16.67
2019-02-20T23:49:36.016Z,15.37
2019-02-20T23:52:04.627Z,14.80
2019-02-20T23:54:33.415Z,14.90
2019-02-20T23:57:01.904Z,14.83
2019-02-20T23:59:30.770Z,16.30
